createdAt,value
2022-12-18T00:01:17.944Z,-8.03
2022-12-18T00:03:46.196Z,-8.07
2022-12-18T00:06:14.659Z,-8.22
2022-12-18T00:08:43.594Z,-8.24
2022-12-18T00:11:14.106Z,-8.28
2022-12-18T00:13:42.297Z,-8.37
2022-12-18T00:16:12.526Z,-8.40
2022-12-18T00:18:40.942Z,-8.45
2022-12-18T00:21:11.636Z,-8.44
2022-12-18T00:23:41.329Z,-8.45
2022-12-18T00:26:13.405Z,-8.54
2022-12-18T00:28:40.841Z,-8.55
2022-12-18T00:31:11.635Z,-8.58
2022-12-18T00:33:39.726Z,-8.60
2022-12-18T00:36:09.703Z,-8.50
2022-12-18T00:38:37.423Z,-8.53
2022-12-18T00:41:05.456Z,-8.61
2022-12-18T00:43:34.344Z,-8.74
2022-12-18T00:46:01.811Z,-8.73
2022-12-18T00:48:29.337Z,-8.61
2022-12-18T00:50:56.886Z,-8.60
2022-12-18T00:53:24.376Z,-8.63
2022-12-18T00:55:51.861Z,-8.73
2022-12-18T00:58:19.546Z,-8.88
2022-12-18T01:00:48.342Z,-8.99
2022-12-18T01:03:16.331Z,-9.01
2022-12-18T01:05:44.007Z,-9.09
2022-12-18T01:08:11.548Z,-9.02
2022-12-18T01:10:41.880Z,-9.08
2022-12-18T01:13:09.363Z,-9.05
2022-12-18T01:15:37.544Z,-9.21
2022-12-18T01:18:06.350Z,-9.12
2022-12-18T01:20:34.153Z,-8.99
2022-12-18T01:23:01.623Z,-8.87
2022-12-18T01:25:29.082Z,-8.73
2022-12-18T01:27:56.518Z,-8.72
2022-12-18T01:30:23.933Z,-8.73
2022-12-18T01:32:51.372Z,-8.81
2022-12-18T01:35:20.179Z,-8.79
2022-12-18T01:37:47.866Z,-8.97
2022-12-18T01:40:15.314Z,-9.10
2022-12-18T01:42:42.738Z,-9.00
2022-12-18T01:45:29.175Z,-8.86
2022-12-18T01:47:59.498Z,-8.54
2022-12-18T01:50:32.686Z,-8.59
2022-12-18T01:53:03.983Z,-8.72
2022-12-18T01:55:37.078Z,-8.75
2022-12-18T01:58:05.614Z,-8.85
2022-12-18T02:00:33.438Z,-8.84
2022-12-18T02:03:01.643Z,-9.01
2022-12-18T02:05:42.752Z,-8.76
2022-12-18T02:08:14.902Z,-8.69
2022-12-18T02:10:50.093Z,-8.56
2022-12-18T02:13:26.097Z,-8.58
2022-12-18T02:16:01.835Z,-8.32
2022-12-18T02:18:34.565Z,-8.07
2022-12-18T02:21:10.387Z,-8.01
2022-12-18T02:23:51.602Z,-8.00
2022-12-18T02:26:25.969Z,-8.03
2022-12-18T02:28:56.527Z,-8.05
2022-12-18T02:31:27.648Z,-7.99
2022-12-18T02:33:58.284Z,-8.12
2022-12-18T02:36:27.401Z,-8.00
2022-12-18T02:38:56.649Z,-8.10
2022-12-18T02:41:26.229Z,-8.15
2022-12-18T02:43:58.233Z,-8.22
2022-12-18T02:46:32.014Z,-8.21
2022-12-18T02:49:10.876Z,-8.22
2022-12-18T02:51:49.984Z,-8.06
2022-12-18T02:54:29.370Z,-8.02
2022-12-18T02:57:00.210Z,-8.04
2022-12-18T02:59:33.823Z,-7.86
2022-12-18T03:02:08.149Z,-7.82
2022-12-18T03:04:44.602Z,-7.82
2022-12-18T03:07:17.821Z,-7.78
2022-12-18T03:09:51.163Z,-7.79
2022-12-18T03:12:24.809Z,-7.87
2022-12-18T03:14:56.402Z,-7.73
2022-12-18T03:17:27.431Z,-7.72
2022-12-18T03:19:58.504Z,-7.78
2022-12-18T03:22:31.166Z,-7.72
2022-12-18T03:25:00.155Z,-7.71
2022-12-18T03:27:32.102Z,-7.69
2022-12-18T03:30:08.211Z,-7.79
2022-12-18T03:32:43.109Z,-7.84
2022-12-18T03:35:13.824Z,-7.73
2022-12-18T03:37:41.265Z,-7.72
2022-12-18T03:40:09.732Z,-7.72
2022-12-18T03:42:48.823Z,-7.83
2022-12-18T03:45:24.019Z,-7.85
2022-12-18T03:48:00.545Z,-7.93
2022-12-18T03:50:43.861Z,-7.97
2022-12-18T03:53:24.878Z,-8.05
2022-12-18T03:55:53.647Z,-8.06
2022-12-18T03:58:26.381Z,-8.09
2022-12-18T04:00:57.851Z,-8.15
2022-12-18T04:03:27.356Z,-8.11
2022-12-18T04:05:57.201Z,-8.10
2022-12-18T04:08:26.509Z,-7.94
2022-12-18T04:10:53.998Z,-7.91
2022-12-18T04:13:26.726Z,-7.80
2022-12-18T04:15:54.347Z,-7.83
2022-12-18T04:18:21.943Z,-7.89
2022-12-18T04:20:49.361Z,-8.00
2022-12-18T04:23:16.802Z,-7.89
2022-12-18T04:25:44.297Z,-7.76
2022-12-18T04:28:11.700Z,-7.33
2022-12-18T04:30:40.556Z,-7.18
2022-12-18T04:33:11.571Z,-7.04
2022-12-18T04:35:39.066Z,-6.97
2022-12-18T04:38:07.522Z,-6.92
2022-12-18T04:40:34.958Z,-6.89
2022-12-18T04:43:02.482Z,-6.84
2022-12-18T04:45:30.014Z,-6.73
2022-12-18T04:48:00.188Z,-6.70
2022-12-18T04:50:27.831Z,-6.66
2022-12-18T04:52:55.257Z,-6.92
2022-12-18T04:55:28.211Z,-6.62
2022-12-18T04:57:55.804Z,-6.50
2022-12-18T05:00:23.687Z,-6.54
2022-12-18T05:02:51.259Z,-6.45
2022-12-18T05:05:20.157Z,-6.45
2022-12-18T05:07:47.598Z,-6.57
2022-12-18T05:10:15.030Z,-6.63
2022-12-18T05:12:56.405Z,-6.60
2022-12-18T05:15:23.828Z,-6.59
2022-12-18T05:17:51.283Z,-6.58
2022-12-18T05:20:20.482Z,-6.57
2022-12-18T05:22:47.892Z,-6.50
2022-12-18T05:25:15.921Z,-6.51
2022-12-18T05:27:43.482Z,-6.43
2022-12-18T05:30:11.747Z,-6.49
2022-12-18T05:32:39.744Z,-6.38
2022-12-18T05:35:09.930Z,-6.39
2022-12-18T05:37:42.969Z,-6.32
2022-12-18T05:40:12.615Z,-6.28
2022-12-18T05:42:40.186Z,-6.31
2022-12-18T05:45:08.476Z,-6.28
2022-12-18T05:47:35.920Z,-6.21
2022-12-18T05:50:03.351Z,-6.18
2022-12-18T05:52:30.788Z,-6.23
2022-12-18T05:55:00.275Z,-6.33
2022-12-18T05:57:27.721Z,-6.48
2022-12-18T05:59:55.235Z,-6.38
2022-12-18T06:02:22.874Z,-6.47
2022-12-18T06:04:50.405Z,-6.50
2022-12-18T06:07:18.366Z,-6.51
2022-12-18T06:09:45.777Z,-6.53
2022-12-18T06:12:14.568Z,-6.43
2022-12-18T06:14:41.968Z,-6.22
2022-12-18T06:17:09.391Z,-6.18
2022-12-18T06:19:37.038Z,-6.04
2022-12-18T06:22:04.545Z,-6.03
2022-12-18T06:24:32.028Z,-6.06
2022-12-18T06:26:59.746Z,-5.99
2022-12-18T06:29:28.508Z,-6.02
2022-12-18T06:31:56.014Z,-6.00
2022-12-18T06:34:23.468Z,-6.03
2022-12-18T06:36:50.886Z,-6.09
2022-12-18T06:39:18.367Z,-6.09
2022-12-18T06:41:45.825Z,-6.11
2022-12-18T06:44:13.277Z,-6.11
2022-12-18T06:46:42.474Z,-6.15
2022-12-18T06:49:10.657Z,-6.16
2022-12-18T06:51:38.112Z,-6.12
2022-12-18T06:54:05.705Z,-6.19
2022-12-18T06:56:33.156Z,-6.27
2022-12-18T06:59:00.611Z,-6.19
2022-12-18T07:01:28.434Z,-6.24
2022-12-18T07:03:58.793Z,-6.12
2022-12-18T07:06:27.885Z,-6.14
2022-12-18T07:08:56.168Z,-6.14
2022-12-18T07:11:23.817Z,-6.25
2022-12-18T07:13:51.333Z,-6.22
2022-12-18T07:16:24.753Z,-6.29
2022-12-18T07:18:53.081Z,-6.16
2022-12-18T07:21:23.243Z,-6.14
2022-12-18T07:23:50.882Z,-6.15
2022-12-18T07:26:20.541Z,-6.15
2022-12-18T07:28:48.510Z,-6.20
2022-12-18T07:31:18.171Z,-6.26
2022-12-18T07:33:46.373Z,-6.26
2022-12-18T07:36:14.110Z,-6.32
2022-12-18T07:38:43.083Z,-6.27
2022-12-18T07:41:13.122Z,-6.38
2022-12-18T07:43:42.039Z,-6.47
2022-12-18T07:46:10.950Z,-6.54
2022-12-18T07:48:40.565Z,-6.62
2022-12-18T07:51:09.193Z,-6.64
2022-12-18T07:53:38.201Z,-6.62
2022-12-18T07:58:58.246Z,-6.47
2022-12-18T08:01:26.255Z,-6.49
2022-12-18T08:03:53.836Z,-6.45
2022-12-18T08:06:23.342Z,-6.29
2022-12-18T08:08:53.215Z,-6.39
2022-12-18T08:11:22.025Z,-6.16
2022-12-18T08:13:49.528Z,-6.16
2022-12-18T08:16:17.338Z,-6.09
2022-12-18T08:18:44.817Z,-6.12
2022-12-18T08:21:13.790Z,-6.13
2022-12-18T08:23:43.330Z,-6.12
2022-12-18T08:26:11.601Z,-6.14
2022-12-18T08:28:40.788Z,-6.15
2022-12-18T08:31:09.170Z,-6.15
2022-12-18T08:33:39.052Z,-6.12
2022-12-18T08:36:07.626Z,-6.24
2022-12-18T08:38:35.044Z,-6.18
2022-12-18T08:41:03.305Z,-6.11
2022-12-18T08:43:48.706Z,-6.10
2022-12-18T08:46:18.091Z,-6.03
2022-12-18T08:48:46.000Z,-5.98
2022-12-18T08:51:13.753Z,-5.95
2022-12-18T08:53:41.721Z,-5.85
2022-12-18T08:56:09.790Z,-5.80
2022-12-18T08:58:37.248Z,-5.80
2022-12-18T09:01:06.130Z,-5.75
2022-12-18T09:03:35.273Z,-5.64
2022-12-18T09:06:02.761Z,-5.60
2022-12-18T09:08:30.823Z,-5.60
2022-12-18T09:10:58.610Z,-5.61
2022-12-18T09:13:26.080Z,-5.61
2022-12-18T09:15:56.080Z,-5.54
2022-12-18T09:18:25.240Z,-5.36
2022-12-18T09:20:54.252Z,-5.19
2022-12-18T09:23:22.303Z,-5.05
2022-12-18T09:25:50.254Z,-4.88
2022-12-18T09:28:20.264Z,-4.74
2022-12-18T09:30:49.980Z,-4.60
2022-12-18T09:33:17.781Z,-4.56
2022-12-18T09:35:47.053Z,-4.52
2022-12-18T09:38:18.727Z,-4.62
2022-12-18T09:40:48.209Z,-4.52
2022-12-18T09:43:18.999Z,-4.49
2022-12-18T09:45:51.533Z,-4.46
2022-12-18T09:48:25.408Z,-4.47
2022-12-18T09:50:55.805Z,-4.44
2022-12-18T09:53:30.033Z,-4.42
2022-12-18T09:55:58.990Z,-4.36
2022-12-18T09:58:32.389Z,-4.37
2022-12-18T10:00:59.838Z,-4.34
2022-12-18T10:03:27.626Z,-4.34
2022-12-18T10:06:04.390Z,-4.29
2022-12-18T10:08:44.148Z,-4.27
2022-12-18T10:11:27.075Z,-4.28
2022-12-18T10:13:58.771Z,-4.31
2022-12-18T10:16:37.654Z,-4.31
2022-12-18T10:19:21.858Z,-4.39
2022-12-18T10:21:56.998Z,-4.30
2022-12-18T10:24:35.202Z,-4.40
2022-12-18T10:27:14.541Z,-4.25
2022-12-18T10:29:43.149Z,-4.22
2022-12-18T10:32:17.126Z,-4.27
2022-12-18T10:34:47.616Z,-4.23
2022-12-18T10:37:19.476Z,-4.16
2022-12-18T10:40:06.301Z,-4.12
2022-12-18T10:42:33.793Z,-4.10
2022-12-18T10:45:03.831Z,-3.94
2022-12-18T10:47:31.423Z,-3.89
2022-12-18T10:49:58.965Z,-3.76
2022-12-18T10:52:28.059Z,-3.67
2022-12-18T10:55:00.035Z,-3.63
2022-12-18T10:57:34.105Z,-3.55
2022-12-18T11:00:22.022Z,-3.60
2022-12-18T11:02:50.009Z,-3.54
2022-12-18T11:05:33.774Z,-3.57
2022-12-18T11:08:02.621Z,-3.51
2022-12-18T11:10:34.317Z,-3.42
2022-12-18T11:13:13.643Z,-3.49
2022-12-18T11:15:42.946Z,-3.40
2022-12-18T11:18:19.656Z,-3.43
2022-12-18T11:20:58.360Z,-3.68
2022-12-18T11:23:27.012Z,-3.38
2022-12-18T11:26:04.759Z,-3.47
2022-12-18T11:28:41.883Z,-3.34
2022-12-18T11:31:23.423Z,-3.54
2022-12-18T11:36:49.987Z,-3.42
2022-12-18T11:39:20.914Z,-3.63
2022-12-18T11:42:12.329Z,-3.47
2022-12-18T11:44:51.868Z,-3.45
2022-12-18T11:47:29.239Z,-3.46
2022-12-18T11:49:57.863Z,-3.41
2022-12-18T11:52:29.077Z,-3.40
2022-12-18T11:55:00.588Z,-3.42
2022-12-18T11:57:40.158Z,-3.26
2022-12-18T12:00:17.084Z,-3.26
2022-12-18T12:03:24.349Z,-3.21
2022-12-18T12:06:06.399Z,-3.15
2022-12-18T12:08:46.137Z,-3.14
2022-12-18T12:11:24.535Z,-3.13
2022-12-18T12:14:03.658Z,-3.10
2022-12-18T12:16:37.134Z,-3.05
2022-12-18T12:19:20.390Z,-3.05
2022-12-18T12:21:55.770Z,-2.95
2022-12-18T12:24:39.138Z,-2.92
2022-12-18T12:27:15.932Z,-2.92
2022-12-18T12:30:00.797Z,-2.90
2022-12-18T12:32:44.420Z,-2.89
2022-12-18T12:35:23.774Z,-3.08
2022-12-18T12:38:01.924Z,-2.85
2022-12-18T12:43:28.116Z,-2.79
2022-12-18T12:46:02.828Z,-2.74
2022-12-18T12:48:40.193Z,-2.73
2022-12-18T12:51:14.798Z,-2.69
2022-12-18T12:53:43.486Z,-2.72
2022-12-18T12:56:16.407Z,-2.72
2022-12-18T12:58:53.916Z,-2.72
2022-12-18T13:01:31.592Z,-2.66
2022-12-18T13:04:10.756Z,-2.74
2022-12-18T13:06:45.299Z,-2.63
2022-12-18T13:09:13.879Z,-2.59
2022-12-18T13:12:00.451Z,-2.51
2022-12-18T13:14:32.247Z,-2.46
2022-12-18T13:17:31.754Z,-2.42
2022-12-18T13:20:08.945Z,-2.38
2022-12-18T13:22:38.614Z,-2.37
2022-12-18T13:25:31.864Z,-2.30
2022-12-18T13:28:05.857Z,-2.25
2022-12-18T13:30:46.238Z,-2.16
2022-12-18T13:34:02.030Z,-2.09
2022-12-18T13:36:33.657Z,-2.07
2022-12-18T13:39:35.270Z,-2.02
2022-12-18T13:42:58.994Z,-2.03
2022-12-18T13:45:47.921Z,-1.98
2022-12-18T13:48:21.140Z,-1.99
2022-12-18T13:50:55.578Z,-1.97
2022-12-18T13:53:28.399Z,-2.07
2022-12-18T13:55:56.629Z,-1.97
2022-12-18T13:58:24.143Z,-2.02
2022-12-18T14:00:51.645Z,-1.97
2022-12-18T14:03:23.294Z,-2.03
2022-12-18T14:05:58.325Z,-1.95
2022-12-18T14:08:29.188Z,-2.05
2022-12-18T14:10:57.258Z,-1.94
2022-12-18T14:13:29.957Z,-2.00
2022-12-18T14:15:58.517Z,-2.00
2022-12-18T14:18:38.460Z,-1.97
2022-12-18T14:21:08.725Z,-1.96
2022-12-18T14:23:39.007Z,-1.89
2022-12-18T14:26:24.023Z,-1.86
2022-12-18T14:28:51.805Z,-1.80
2022-12-18T14:31:20.818Z,-1.77
2022-12-18T14:33:48.667Z,-1.80
2022-12-18T14:36:20.337Z,-1.82
2022-12-18T14:38:51.609Z,-1.78
2022-12-18T14:41:20.910Z,-1.78
2022-12-18T14:43:49.772Z,-1.75
2022-12-18T14:46:30.957Z,-1.75
2022-12-18T14:48:58.934Z,-1.77
2022-12-18T14:51:29.024Z,-1.82
2022-12-18T14:53:58.471Z,-1.81
2022-12-18T14:56:28.308Z,-1.79
2022-12-18T14:58:58.483Z,-1.78
2022-12-18T15:01:29.106Z,-1.81
2022-12-18T15:03:58.583Z,-1.84
2022-12-18T15:06:34.365Z,-1.80
2022-12-18T15:09:05.202Z,-1.78
2022-12-18T15:11:45.201Z,-1.85
2022-12-18T15:14:33.788Z,-1.82
2022-12-18T15:17:03.971Z,-1.80
2022-12-18T15:19:37.705Z,-1.92
2022-12-18T15:22:07.011Z,-1.80
2022-12-18T15:24:35.193Z,-1.77
2022-12-18T15:27:02.827Z,-1.87
2022-12-18T15:29:30.240Z,-2.00
2022-12-18T15:32:03.306Z,-1.76
2022-12-18T15:34:31.504Z,-1.76
2022-12-18T15:36:58.937Z,-1.77
2022-12-18T15:39:27.689Z,-1.75
2022-12-18T15:42:12.934Z,-1.73
2022-12-18T15:44:40.586Z,-1.74
2022-12-18T15:47:13.793Z,-1.77
2022-12-18T15:49:41.371Z,-1.77
2022-12-18T15:52:14.142Z,-1.77
2022-12-18T15:55:00.325Z,-1.79
2022-12-18T15:57:27.829Z,-1.84
2022-12-18T15:59:58.765Z,-1.88
2022-12-18T16:02:27.068Z,-1.87
2022-12-18T16:04:55.307Z,-1.89
2022-12-18T16:07:25.064Z,-1.95
2022-12-18T16:09:55.150Z,-2.06
2022-12-18T16:12:26.168Z,-2.01
2022-12-18T16:14:53.629Z,-2.02
2022-12-18T16:17:21.101Z,-2.15
2022-12-18T16:19:48.529Z,-2.07
2022-12-18T16:22:22.802Z,-2.09
2022-12-18T16:24:50.962Z,-2.13
2022-12-18T16:27:20.029Z,-2.15
2022-12-18T16:29:47.831Z,-2.14
2022-12-18T16:32:17.688Z,-2.14
2022-12-18T16:34:45.986Z,-2.23
2022-12-18T16:37:15.609Z,-2.19
2022-12-18T16:39:43.686Z,-2.36
2022-12-18T16:42:17.030Z,-2.24
2022-12-18T16:44:47.184Z,-2.37
2022-12-18T16:47:15.627Z,-2.32
2022-12-18T16:49:43.222Z,-2.36
2022-12-18T16:52:10.709Z,-2.35
2022-12-18T16:54:38.425Z,-2.37
2022-12-18T16:57:06.181Z,-2.45
2022-12-18T16:59:33.874Z,-2.41
2022-12-18T17:02:03.114Z,-2.35
2022-12-18T17:04:30.689Z,-2.51
2022-12-18T17:06:58.151Z,-2.42
2022-12-18T17:09:26.075Z,-2.41
2022-12-18T17:11:54.424Z,-2.44
2022-12-18T17:14:23.629Z,-2.43
2022-12-18T17:17:07.372Z,-2.42
2022-12-18T17:19:40.165Z,-2.47
2022-12-18T17:22:08.011Z,-2.51
2022-12-18T17:24:35.749Z,-2.57
2022-12-18T17:27:03.665Z,-2.51
2022-12-18T17:29:31.294Z,-2.54
2022-12-18T17:32:01.354Z,-2.58
2022-12-18T17:34:28.998Z,-2.58
2022-12-18T17:36:58.848Z,-2.63
2022-12-18T17:39:26.358Z,-2.63
2022-12-18T17:41:53.917Z,-2.65
2022-12-18T17:44:21.630Z,-2.86
2022-12-18T17:46:49.348Z,-2.73
2022-12-18T17:49:17.220Z,-2.92
2022-12-18T17:51:44.773Z,-2.73
2022-12-18T17:54:14.079Z,-2.70
2022-12-18T17:56:41.755Z,-2.83
2022-12-18T17:59:09.534Z,-2.78
2022-12-18T18:01:43.781Z,-2.88
2022-12-18T18:04:12.143Z,-2.70
2022-12-18T18:06:39.998Z,-2.92
2022-12-18T18:09:09.234Z,-2.89
2022-12-18T18:12:03.263Z,-2.91
2022-12-18T18:14:31.099Z,-2.67
2022-12-18T18:16:59.852Z,-2.87
2022-12-18T18:19:33.950Z,-2.75
2022-12-18T18:22:03.126Z,-2.69
2022-12-18T18:24:31.742Z,-2.72
2022-12-18T18:27:00.881Z,-2.68
2022-12-18T18:29:31.165Z,-2.80
2022-12-18T18:31:59.411Z,-2.68
2022-12-18T18:34:29.600Z,-2.96
2022-12-18T18:36:57.077Z,-2.69
2022-12-18T18:39:24.942Z,-2.70
2022-12-18T18:41:52.654Z,-2.80
2022-12-18T18:44:29.295Z,-2.67
2022-12-18T18:46:58.249Z,-2.70
2022-12-18T18:49:27.406Z,-2.56
2022-12-18T18:51:56.625Z,-2.64
2022-12-18T18:54:24.583Z,-2.85
2022-12-18T18:59:41.593Z,-2.67
2022-12-18T19:02:11.661Z,-2.60
2022-12-18T19:04:43.100Z,-2.60
2022-12-18T19:07:15.041Z,-2.62
2022-12-18T19:09:55.697Z,-2.70
2022-12-18T19:12:40.923Z,-2.60
2022-12-18T19:15:10.665Z,-2.58
2022-12-18T19:17:41.558Z,-2.58
2022-12-18T19:20:12.524Z,-2.64
2022-12-18T19:22:40.026Z,-2.64
2022-12-18T19:25:09.263Z,-2.60
2022-12-18T19:27:39.926Z,-2.66
2022-12-18T19:30:08.810Z,-2.76
2022-12-18T19:32:37.966Z,-2.66
2022-12-18T19:35:06.223Z,-2.58
2022-12-18T19:37:35.825Z,-2.64
2022-12-18T19:40:06.081Z,-2.81
2022-12-18T19:42:42.724Z,-2.56
2022-12-18T19:45:11.276Z,-2.52
2022-12-18T19:47:43.131Z,-2.73
2022-12-18T19:50:11.404Z,-2.53
2022-12-18T19:52:39.059Z,-2.47
2022-12-18T19:55:07.091Z,-2.44
2022-12-18T19:57:34.842Z,-2.61
2022-12-18T20:00:02.541Z,-2.66
2022-12-18T20:02:31.053Z,-2.45
2022-12-18T20:05:00.264Z,-2.36
2022-12-18T20:07:27.843Z,-2.34
2022-12-18T20:10:01.371Z,-2.33
2022-12-18T20:12:33.215Z,-2.41
2022-12-18T20:15:02.144Z,-2.35
2022-12-18T20:17:33.956Z,-2.38
2022-12-18T20:20:02.964Z,-2.34
2022-12-18T20:22:30.592Z,-2.30
2022-12-18T20:24:58.271Z,-2.36
2022-12-18T20:27:26.063Z,-2.34
2022-12-18T20:29:53.631Z,-2.34
2022-12-18T20:32:23.560Z,-2.34
2022-12-18T20:34:51.316Z,-2.47
2022-12-18T20:37:20.950Z,-2.19
2022-12-18T20:39:49.004Z,-2.40
2022-12-18T20:42:17.160Z,-2.62
2022-12-18T20:44:45.650Z,-2.50
2022-12-18T20:47:13.394Z,-2.36
2022-12-18T20:49:44.473Z,-2.14
2022-12-18T20:52:13.326Z,-2.19
2022-12-18T20:54:42.260Z,-2.11
2022-12-18T20:57:09.843Z,-2.11
2022-12-18T20:59:37.516Z,-2.26
2022-12-18T21:02:05.300Z,-2.21
2022-12-18T21:04:33.116Z,-2.04
2022-12-18T21:07:02.989Z,-2.03
2022-12-18T21:09:35.934Z,-2.03
2022-12-18T21:12:29.533Z,-2.05
2022-12-18T21:15:01.589Z,-2.03
2022-12-18T21:17:29.548Z,-2.01
2022-12-18T21:19:59.322Z,-2.01
2022-12-18T21:22:27.257Z,-1.95
2022-12-18T21:24:54.966Z,-1.92
2022-12-18T21:27:23.846Z,-2.03
2022-12-18T21:29:52.245Z,-2.03
2022-12-18T21:32:20.296Z,-1.99
2022-12-18T21:34:48.580Z,-1.98
2022-12-18T21:37:16.326Z,-2.02
2022-12-18T21:39:43.784Z,-2.00
2022-12-18T21:42:30.481Z,-2.01
2022-12-18T21:44:59.463Z,-1.99
2022-12-18T21:47:26.962Z,-1.97
2022-12-18T21:49:54.915Z,-2.19
2022-12-18T21:52:28.616Z,-2.01
2022-12-18T21:55:06.571Z,-2.00
2022-12-18T21:57:36.298Z,-2.03
2022-12-18T22:00:06.060Z,-2.02
2022-12-18T22:02:33.575Z,-2.08
2022-12-18T22:05:01.185Z,-2.07
2022-12-18T22:07:29.628Z,-2.11
2022-12-18T22:09:57.092Z,-2.06
2022-12-18T22:12:41.693Z,-2.29
2022-12-18T22:15:18.634Z,-2.03
2022-12-18T22:17:49.853Z,-2.01
2022-12-18T22:20:17.581Z,-2.01
2022-12-18T22:22:47.911Z,-2.06
2022-12-18T22:25:15.587Z,-2.08
2022-12-18T22:27:43.469Z,-2.33
2022-12-18T22:30:14.563Z,-2.06
2022-12-18T22:32:42.045Z,-2.10
2022-12-18T22:35:15.558Z,-2.05
2022-12-18T22:37:43.565Z,-2.23
2022-12-18T22:40:23.928Z,-2.03
2022-12-18T22:42:52.913Z,-1.98
2022-12-18T22:45:21.692Z,-2.02
2022-12-18T22:47:49.210Z,-2.11
2022-12-18T22:50:16.671Z,-2.05
2022-12-18T22:52:44.145Z,-1.99
2022-12-18T22:55:11.618Z,-1.98
2022-12-18T22:57:40.285Z,-1.95
2022-12-18T23:00:12.956Z,-1.94
2022-12-18T23:02:41.887Z,-2.23
2022-12-18T23:05:09.699Z,-1.97
2022-12-18T23:07:37.141Z,-1.95
2022-12-18T23:10:05.187Z,-1.92
2022-12-18T23:12:32.721Z,-1.90
2022-12-18T23:15:02.151Z,-1.98
2022-12-18T23:17:29.644Z,-1.91
2022-12-18T23:19:58.490Z,-1.87
2022-12-18T23:22:25.924Z,-2.12
2022-12-18T23:24:53.351Z,-1.97
2022-12-18T23:27:20.862Z,-1.93
2022-12-18T23:29:48.277Z,-2.01
2022-12-18T23:32:16.796Z,-1.92
2022-12-18T23:34:44.257Z,-1.90
2022-12-18T23:37:13.030Z,-2.03
2022-12-18T23:39:40.475Z,-1.81
2022-12-18T23:42:07.915Z,-1.83
2022-12-18T23:44:35.525Z,-1.81
2022-12-18T23:47:04.339Z,-1.73
2022-12-18T23:49:31.930Z,-1.60
2022-12-18T23:51:59.539Z,-1.54
2022-12-18T23:54:33.204Z,-1.50
2022-12-18T23:57:01.310Z,-1.44
2022-12-18T23:59:28.827Z,-1.40
